Weather observations for the past three days for
Deadhorse, Deadhorse Airport
Metric (Imperial)
Date Time (akdt) Wind (kph) Vis. (km) Weather Sky Cond. Temperature (ºC) Relative Humidity Wind Chill (°C) Heat Index (°C) Pressure Precipitation (cm)
Air Dwpt 6 hour altimeter (cm) sea level (mb) 1 hr 3 hr 6 hr
Max. Min.
04 09:53 E 26 3.22 Fog/Mist BKN004 OVC055 -4.4 -5 -2.8 -4.4 96% -11 76.58 1020.9
04 08:53 E 22 3.22 Light Snow Fog/Mist OVC005 -3.9 -5 92% -10 76.58 1021.2
04 07:53 NE 24 1.61 Light Snow Fog/Mist OVC003 -3.9 -5 92% -10 76.58 1021.0
04 06:53 NE 20 0.80 Light Snow Freezing Fog OVC002 -3.3 -3.9 96% -9 76.61 1021.3
04 05:53 NE 17 4.83 Fog/Mist OVC003 -3.3 -3.9 96% -8 76.58 1021.1
04 04:53 NE 13 6.44 Fog/Mist OVC003 -2.8 -3.3 96% -7 76.61 1021.3
04 03:53 NE 17 4.02 Fog/Mist OVC002 -2.8 -3.3 -1.1 -2.8 96% -8 76.58 1021.0
04 02:53 N 13 12.87 Overcast OVC005 -2.8 -3.3 96% -7 76.56 1020.7
04 01:53 N 7 12.87 Overcast OVC008 -2.2 -3.3 92% -5 76.56 1020.9
04 00:53 N 7 12.87 Overcast SCT005 BKN060 OVC110 -2.2 -2.8 96% -5 76.56 1020.6
03 23:53 NW 9 12.87 Overcast OVC055 -1.7 -2.2 96% -5 76.53 1020.2
03 22:53 NW 15 12.87 Overcast BKN055 OVC080 -1.1 -2.2 92% -5 76.48 1019.7
03 21:53 NW 19 12.87 Overcast OVC055 -1.1 -2.2 0 -1.1 92% -6 76.45 1019.4
03 20:53 NW 17 12.87 Overcast FEW006 OVC050 -0.6 -1.7 92% -5 76.43 1019.0
03 19:53 W 22 9.66 Fog/Mist BKN007 OVC055 -0.6 -1.7 92% -6 76.4 1018.6
03 18:53 W 22 16.09 Overcast BKN007 OVC055 -0.6 -1.7 92% -6 76.35 1018.0
03 17:53 W 24 16.09 Overcast SCT006 OVC055 0 -1.7 88% -5 76.33 1017.6
03 16:53 W 24 16.09 Overcast SCT007 BKN050 OVC080 -0.6 -1.7 92% -6 76.28 1017.1
03 15:53 W 26 16.09 Overcast FEW007 SCT048 OVC075 -0.6 -1.7 1.7 -0.6 92% -6 76.2 1016.1
03 14:53 W 24 16.09 Overcast SCT007 OVC055 0 -1.1 92% -5 76.15 1015.2
03 13:53 W 28 16.09 Overcast FEW047 OVC055 0.6 -1.1 89% -5 76.1 1014.6
03 12:53 W 35 16.09 Mostly Cloudy and Breezy FEW005 SCT070 BKN085 0 -1.1 92% -7 76.02 1013.6
03 11:53 W 28 16.09 Mostly Cloudy FEW050 FEW080 BKN100 1.7 -0.6 85% -4 75.95 1012.8
03 10:53 W 17 16.09 Mostly Cloudy SCT080 BKN100 0.6 -1.1 89% -4 75.9 1012.0
03 09:53 SW 15 16.09 Overcast OVC080 0 -1.1 0 -4.4 92% -4 75.84 1011.3
03 08:53 SW 15 16.09 Overcast OVC070 -0.6 -1.7 92% -5 75.82 1010.8
03 07:53 W 7 16.09 Overcast OVC070 -1.7 -2.8 92% -4 75.79 1010.4
03 06:53 SW 6 16.09 Overcast OVC065 -2.2 -3.3 92% 75.74 1010.0
03 05:53 SE 7 12.87 Overcast OVC065 -3.9 -4.4 96% -7 75.74 1009.8
03 04:53 E 7 9.66 Light Freezing Rain Fog/Mist BKN022 OVC060 -3.9 -3.9 100% -7 75.69 1009.3
03 02:53 Calm 11.27 Mostly Cloudy SCT011 SCT019 BKN035 -3.3 -3.9 96% 75.67 1008.8
03 01:53 SW 6 11.27 Overcast OVC011 -3.3 -3.9 96% 75.64 1008.5
03 00:53 W 7 12.87 Overcast OVC016 -3.3 -4.4 92% -6 75.59 1008.0
02 23:53 SW 9 9.66 Fog/Mist BKN027 BKN037 OVC085 -3.3 -4.4 92% -7 75.57 1007.5
02 22:53 W 9 9.66 Fog/Mist OVC042 -2.8 -3.9 92% -6 75.51 1006.9
02 21:53 W 13 11.27 Overcast BKN008 BKN044 OVC055 -2.8 -3.9 -1.7 -2.8 92% -7 75.49 1006.4
02 20:53 W 11 12.87 Overcast SCT008 OVC060 -2.2 -3.9 88% -6 75.44 1005.8
02 19:53 W 6 11.27 Overcast BKN007 OVC055 -2.2 -3.3 92% 75.39 1005.0
02 18:53 Calm 11.27 Overcast SCT065 OVC080 -2.2 -3.3 92% 75.34 1004.5
02 17:53 E 6 8.05 Fog/Mist BKN006 OVC044 -2.2 -3.9 88% 75.29 1003.9
02 16:53 E 7 6.44 Fog/Mist BKN006 OVC042 -2.8 -3.9 92% -5 75.26 1003.3
02 15:53 E 6 11.27 Overcast OVC006 -2.8 -3.9 -2.8 -5 92% 75.21 1002.7
02 14:53 E 11 11.27 Overcast OVC006 -3.3 -4.4 92% -7 75.16 1002.0
02 13:53 E 17 11.27 Overcast OVC006 -3.3 -4.4 92% -8 75.11 1001.4
02 12:53 E 20 11.27 Overcast OVC006 -3.9 -5 92% -10 75.06 1000.8
02 11:53 E 26 9.66 Fog/Mist OVC005 -3.9 -5 92% -11 75.01 1000.1
02 10:53 E 28 8.05 Blowing Snow Fog/Mist OVC005 -5 -5.6 96% -12 74.96 999.6
02 09:53 E 30 4.83 Blowing Snow Fog/Mist OVC005 -5 -6.1 -5 -6.1 92% -12 74.93 999.3
02 08:53 E 28 3.22 Fog/Mist OVC005 -5 -6.1 92% -12 74.93 999.0
02 07:53 E 31 4.83 Fog/Mist OVC004 -5.6 -6.7 92% -13 74.88 998.6
02 06:53 E 30 4.83 Fog/Mist OVC005 -5.6 -6.7 92% -13 74.9 998.7
02 05:53 E 28 4.83 Fog/Mist OVC004 -6.1 -6.7 96% -14 74.9 998.8
02 04:53 E 33 4.83 Fog/Mist and Breezy OVC005 -6.1 -6.7 96% -14 74.9 998.7
02 03:53 E 33 6.44 Fog/Mist and Breezy OVC005 -6.1 -6.7 -5 -6.1 96% -14 74.93 999.0
02 02:53 E 37 6.44 Fog/Mist and Breezy OVC005 -5.6 -6.7 92% -14 74.93 999.3
02 01:53 E 31 6.44 Fog/Mist OVC008 -5.6 -6.7 92% -13 74.98 999.7
02 00:53 E 41 8.05 Blowing Snow Fog/Mist and Breezy OVC008 -5.6 -6.1 96% -14 75.01 1000.1
01 23:53 E 39 2.41 Blowing Snow Fog/Mist and Breezy OVC008 -5.6 -6.7 92% -14 75.03 1000.5
01 22:53 E 37 6.44 Fog/Mist and Breezy OVC007 -5.6 -6.7 92% -14 75.08 1001.2
01 21:53 E 35 8.05 Fog/Mist and Breezy OVC008 -6.1 -7.2 -6.1 -6.7 92% -14 75.13 1001.8
01 20:53 E 37 6.44 Blowing Snow Fog/Mist and Breezy OVC009 -6.7 -7.8 92% -15 75.16 1002.3
01 19:53 E 37 G 50 4.83 Blowing Snow Fog/Mist and Breezy OVC009 -6.7 -7.8 92% -15 75.23 1003.2
01 18:53 E 37 3.22 Blowing Snow Fog/Mist and Breezy BKN009 -6.1 -7.8 88% -15 75.26 1003.4
01 17:53 E 39 3.22 Blowing Snow Fog/Mist and Breezy SCT009 -6.1 -7.8 88% -15 75.29 1003.9
01 16:53 E 44 2.41 Blowing Snow Fog/Mist and Windy SCT009 -6.1 -7.2 92% -15 75.34 1004.7
01 15:53 E 48 2.01 Blowing Snow Fog/Mist and Windy SCT009 -6.1 -7.2 -5.6 -8.3 92% -16 75.41 1005.6
01 14:53 E 43 2.41 Blowing Snow Fog/Mist and Windy SCT009 -5.6 -6.7 92% -15 75.46 1006.3
01 13:53 E 41 G 59 2.41 Fog/Mist and Breezy SCT009 -5.6 -6.7 92% -14 75.49 1006.7
01 12:53 E 44 2.41 Blowing Snow Fog/Mist and Windy SCT007 -6.1 -7.2 92% -15 75.54 1007.2
01 11:53 E 43 3.22 Blowing Snow Fog/Mist and Windy FEW004 -7.8 -8.9 92% -17 75.57 1007.7
01 10:53 E 41 3.22 Blowing Snow Fog/Mist and Breezy BKN004 -7.8 -9.4 88% -17 75.62 1008.2
Date Time (akdt) Wind (kph) Vis. (km) Weather Sky Cond. Air Dwpt Max. Min. Relative Humidity Wind Chill (°C) Heat Index (°C) altimeter (cm) sea level (mb) 1 hr 3 hr 6 hr
6 hour
Temperature (ºC) Pressure Precipitation (cm)